Phoenix, Arizona
Traffic Map
Current Weather Conditions
Phoenix, Arizona
Few Clouds
Few Clouds
96°
Feels Like: 96°
Wind Chill: 96° Ceiling: Unl
Heat Index: 96° Visibility: 10mi
Dew Point: 49° Wind: 10mph
Humidity: 20% Direction: 310° (NW)
Pressure: 29.78in Gusts: 0mph
Raw Report DataKPHX 040851Z 31009KT 10SM FEW250 36/09 A2978 RMK AO2 SLP060 T03560094 51005
Traffic Incident Summary
Active as of:
Severity:
Category:
InformationThere was an issue retrieving the traffic information for this location. Please try a different location or try again shortly.
Advertisements
Track Severe Weather on mobile